Manolis Donis

Recruteur - Panathinaikos
6 Mars 2029
Mardi
Processus

Personnalité

Adaptabilité (4) Ambition (19) Controverse (6) Loyauté (5) Pression (7) Professionnalisme (1) Sportivité (1) Tempérament (11)

Profil

Style d'entraînement Démocratique
Diplôme National A
Détermination 6
Gestion des joueurs 8
Motivation 13
Discipline 10
Satisfaction professionnelle
100%
Fatigue
0%
Rôle Recruteur
Salaire 98.2K p/s
Contrat 14.03.2029

Performance

Comportement Bon
Efficacité de l'entraînement
58%
Développement des joueurs
70%
Prévention des blessures
40%
Mise en place tactique
60%

Événements récents

Négociation de contrat entamée 7j
Négociation de contrat entamée 7j
Négociation de contrat entamée 7j
Négociation de contrat entamée 7j
Négociation de contrat entamée 7j
Négociation de contrat entamée 7j
Négociation de contrat entamée 14j
Négociation de contrat entamée 14j

Suivi en cours

180
Joueur Club Statut Capacité Confiance Observé Dernière observation Dernier vote
Jake Evans Huddersfield Town Actif 128 / 125 40% 2 29.01.2029 -
Buba Sangaré Elche Actif 147 / 146 40% 6 29.01.2029 -
Gabriel Carvalho Al-Qadisiyah Actif 151 / 136 40% 3 28.01.2029 -
Gilberto Mora Cruz Azul Actif 149 / 142 40% 3 27.01.2029 -
Louis Page Hull City Actif 146 / 136 40% 2 26.01.2029 -
Mustafa Hekimoğlu Sivasspor Actif 128 / 153 40% 1 26.01.2029 -
Lisandro Piñero Banfield Actif 135 / 129 40% 3 25.01.2029 -
Harry Gray Leeds United Actif 142 / 133 40% 4 25.01.2029 -
Kerim Alajbegović Juve Stabia Actif 133 / 151 40% 2 21.01.2029 -
Mateo Lizondo Colón Actif 92 / 110 40% 1 21.01.2029 -
Luca Raffaelli Cesar Vallejo Actif 106 / 130 40% 2 17.01.2029 -
Jiří Panoš Slavia Prague Actif 124 / 116 40% 2 14.01.2029 -
Hugo Camberos Leon Actif 136 / 128 40% 1 14.01.2029 -
Álvaro Montoro Botafogo Actif 133 / 149 40% 1 13.01.2029 -
Kevin Angulo Aguilas Doradas Actif 121 / 107 40% 7 11.01.2029 -
Giovanni Cantizano Rosario Central Actif 127 / 129 40% 2 11.01.2029 -
Simón Bodnar River Plate Actif 114 / 131 40% 3 09.01.2029 -
Álex Méndez Asteras Actif 104 / 114 58% 1 06.01.2029 Approuver
Sayfiddin Sodikov Andijon Actif 87 / 87 40% 1 05.01.2029 -
Lucas Piton Vasco da Gama Actif 140 / 125 40% 3 01.01.2029 -
Santiago Sosa Vasco da Gama Actif 141 / 127 40% 1 01.01.2029 -
Max Anchor Panserraikos Actif 112 / 115 30% 1 / 1m 27.09.2028 -
Joel Ezra Enyimba Actif 99 / 114 40% 3 31.08.2028 -
Ishmael Addo Heart of Lions Actif 105 / 113 40% 1 31.08.2028 -
Mamoutou Berthé US Bougouba Actif 114 / 102 40% 1 30.08.2028 -
Carlos da Rosa Danubio Actif 86 / 107 40% 1 28.08.2028 -
Matías Lozano Atletico Bucaramanga Actif 109 / 110 40% 1 27.08.2028 -
Julian Hall Austin FC Actif 120 / 103 40% 2 25.08.2028 -
Agustín Medina River Plate Actif 120 / 132 40% 1 24.08.2028 -
Alexis Rodríguez Portuguesa Actif 97 / 106 40% 1 17.08.2028 -
Alphadjo Cissé Bologna Actif 129 / 131 40% 3 13.08.2028 -
Jorge Salinas Racing Santander Actif 126 / 149 40% 3 10.08.2028 -
Jamal Jimoh-Aloba Northampton Town Actif 127 / 128 40% 2 09.08.2028 -
Owen Eames Milton Keynes Dons Actif 108 / 98 40% 2 09.08.2028 -
Peter Amidu Acquah Asante Kotoko Actif 107 / 116 40% 1 08.08.2028 -
Louie Copley Accrington Stanley Actif 96 / 115 40% 2 07.08.2028 -
Daniel Banjaqui Benfica Actif 134 / 134 40% 4 07.08.2028 -
Trey Ogunsuyi Shrewsbury Town Actif 98 / 98 40% 2 06.08.2028 -
Sebastian Lodberg Pergolettese Actif 98 / 117 40% 1 06.08.2028 -
Leo Pecover Rotherham United Actif 101 / 119 40% 2 05.08.2028 -
Igor Tyjon Blackburn Rovers Actif 117 / 140 40% 4 04.08.2028 -
Mateus Mide Porto Actif 115 / 108 40% 1 04.08.2028 -
Isaac England Shrewsbury Town Actif 89 / 110 40% 3 03.08.2028 -
Jack Shorrock Port Vale Actif 104 / 103 40% 2 29.07.2028 -
Kylan Midwood Shrewsbury Town Actif 104 / 94 40% 1 28.07.2028 -
Jan Bürger Burton Albion Actif 121 / 117 40% 2 27.07.2028 -
Ronnie Harvey Colchester United Actif 84 / 94 40% 1 26.07.2028 -
Rafael Camacho Sporting CP Actif 113 / 126 40% 1 26.07.2028 -
André Miranda Porto Actif 123 / 113 40% 2 25.07.2028 -
Mathis Jangeal Chaves Actif 121 / 107 40% 1 24.07.2028 -
Dro RC Lens Actif 145 / 153 40% 1 22.07.2028 -
Charlie Hughes Hull City Actif 143 / 137 40% 5 13.07.2028 -
Aidan Morris Middlesbrough Actif 143 / 151 40% 2 13.07.2028 -
Cameron Pring Bristol City Actif 129 / 127 40% 2 09.07.2028 -
Ronnie Edwards Queens Park Rangers Actif 133 / 129 40% 1 09.07.2028 -
Sander Berge Sheffield United Actif 150 / 139 40% 3 07.07.2028 -
Kayne Ramsay Charlton Athletic Actif 137 / 136 40% 6 07.07.2028 -
Gustavo Puerta Racing Santander Actif 138 / 156 40% 5 06.07.2028 -
Jacques Ekomié Wrexham Actif 148 / 134 40% 6 04.07.2028 -
Luke McNally Bristol City Actif 139 / 125 40% 1 04.07.2028 -
Alfie Doughty Millwall Actif 131 / 130 40% 3 03.07.2028 -
Beñat Turrientes Valladolid Actif 157 / 153 40% 1 03.07.2028 -
Aleix Garrido Eibar Actif 130 / 143 40% 1 30.06.2028 -
Federico Coletta Benfica Actif 111 / 103 40% 1 30.06.2028 -
Federico Bonini Almería Actif 130 / 146 40% 2 27.06.2028 -
Nordi Mukiele Sunderland Actif 154 / 141 40% 2 25.06.2028 -
Tom Davies Walsall Actif 145 / 134 40% 2 24.06.2028 -
Will Smallbone Rotherham United Actif 126 / 147 40% 2 24.06.2028 -
Aarón Ochoa Málaga Actif 124 / 114 40% 1 22.06.2028 -
Héctor Fort Real Sociedad Actif 145 / 133 40% 1 22.06.2028 -
Harry Clarke Preston Actif 126 / 123 40% 2 20.06.2028 -
Yerson Mosquera Wolverhampton Actif 138 / 148 40% 1 18.06.2028 -
Lewis Gibson Preston Actif 142 / 139 40% 1 16.06.2028 -
Taylor Harwood-Bellis Southampton Actif 132 / 135 40% 1 15.06.2028 -
Nicolas Madsen Queens Park Rangers Actif 142 / 129 40% 1 14.06.2028 -
Jayden Bogle Leeds United Actif 148 / 144 40% 3 13.06.2028 -
Ben Sheaf Wrexham Actif 127 / 131 40% 1 13.06.2028 -
Michael Baidoo Plymouth Argyle Actif 128 / 142 40% 1 12.06.2028 -
Mattia Mannini Juve Stabia Actif 127 / 131 40% 1 12.06.2028 -
Aaron Wan-Bissaka West Ham United Actif 143 / 151 40% 2 10.06.2028 -
Lucas Pires Burnley Actif 142 / 143 40% 1 09.06.2028 -
Dani Díaz Real Sociedad Actif 128 / 115 40% 1 07.06.2028 -
Manu Morlanes Mallorca Actif 148 / 148 40% 1 04.06.2028 -
Víctor Chust Elche Actif 149 / 136 40% 1 03.06.2028 -
David Miculescu FCSB Actif 119 / 120 67% 1 01.06.2028 Approuver
Derry Murkin Derby County Actif 127 / 126 40% 1 01.06.2028 -
Leonel Jaime River Plate Actif 117 / 106 40% 2 31.01.2028 -
Oscar Schwartau Norwich City Actif 129 / 137 40% 2 31.01.2028 -
Ahmed Khaled Paralimni Actif 106 / 87 40% 3 28.01.2028 -
Oliver Irow Crawley Town Actif 90 / 100 40% 1 28.01.2028 -
Rafael Lobato Rio Ave Actif 119 / 124 40% 1 27.01.2028 -
Emiliano Zambrano Gimnasia y Esgrima Actif 84 / 112 40% 1 23.01.2028 -
Daniel Awuni Aduana Stars Actif 117 / 96 40% 1 22.01.2028 -
Hirokazu Ishihara FC Tokyo Actif 137 / 117 40% 3 21.01.2028 -
Sivert Mannsverk Sparta Prague Actif 130 / 129 40% 1 21.01.2028 -
Kauã Elias Shakhtar Actif 138 / 143 40% 1 20.01.2028 -
Santos Torrealba Portuguesa Actif 107 / 107 40% 2 19.01.2028 -
Mihajlo Cvetković Anderlecht Actif 129 / 142 40% 1 19.01.2028 -
Nacer Boyata Mouscron Actif 131 / 132 40% 2 17.01.2028 -
Razvan Moldovan Olympique de Marseille Actif 136 / 137 67% 1 17.01.2028 Approuver
Jon Moncayola Osasuna Actif 138 / 144 40% 1 17.01.2028 -
Emerson Royal Flamengo Actif 146 / 126 40% 1 16.01.2028 -
Vitinho Botafogo Actif 139 / 122 40% 3 15.01.2028 -
Evander FC Cincinnati Actif 159 / 146 40% 2 14.01.2028 -
Kevin Lomónaco Independiente Actif 132 / 127 40% 2 14.01.2028 -
Nicolás Fernández Mercau New York City Actif 151 / 150 40% 1 13.01.2028 -
Juan Pablo Freytes Fluminense Actif 128 / 138 40% 1 12.01.2028 -
James Justin Leeds United Actif 151 / 148 40% 1 12.01.2028 -
Matheus Henrique Cruzeiro Actif 141 / 123 40% 1 11.01.2028 -
Ángelo Preciado Atlético Mineiro Actif 133 / 130 40% 1 10.01.2028 -
Emil Breivik Molde Actif 125 / 125 40% 1 09.01.2028 -
Ryuya Nishio Omiya Ardija Actif 129 / 116 40% 5 08.01.2028 -
Valentino Acuña Newell's Old Boys Actif 121 / 113 40% 1 04.01.2028 -
Rúben Neves Al-Hilal Actif 156 / 146 40% 1 03.01.2028 -
Henadii Synchuk CF Montreal Actif 120 / 133 40% 1 03.01.2028 -
Johannes Eggestein VfB Stuttgart Actif 125 / 125 67% 1 01.01.2028 Approuver
Mehdi Hashemnejad Tigres Actif 116 / 118 67% 1 01.01.2028 Approuver
Ovidiu Dragusin Club America Actif 118 / 122 66% 1 01.01.2028 Approuver
Oleksii Hutsuliak Panathinaikos Actif 126 / 126 67% 1 01.01.2028 Approuver
Jean Lucas Bahia Actif 124 / 137 40% 1 01.01.2028 -
Gustavo Lozano Zamora Actif 95 / 113 40% 1 01.01.2028 -
Jan Virgili Club Brugge Actif 144 / 130 40% 1 01.01.2028 -
Shuto Nakano Sanfrecce Hiroshima Actif 142 / 119 40% 1 31.08.2027 -
Marcos Antonio Sport Recife Actif 154 / 152 40% 2 30.08.2027 -
Idan Toklomati Charlotte Football Club Actif 129 / 126 40% 1 29.08.2027 -
Charles Pickel Sharjah Actif 121 / 155 40% 2 26.08.2027 -
Agustín Venezia Iquique Actif 103 / 119 40% 2 26.08.2027 -
Matheus Nascimento San Jose Earthquakes Actif 111 / 108 40% 1 26.08.2027 -
David Martínez Los Angeles Football Club Actif 118 / 147 40% 1 25.08.2027 -
Taiyo Koga Kashiwa Reysol Actif 122 / 126 40% 2 21.08.2027 -
Wagner Pina Trabzonspor Actif 135 / 147 40% 1 10.08.2027 -
Filippo Ranocchia Palermo Actif 136 / 142 40% 1 08.08.2027 -
Christopher Opéri Basaksehir Actif 120 / 114 40% 1 08.08.2027 -
Alessandro Zanoli Udinese Actif 133 / 128 40% 1 07.08.2027 -
Teboho Mokoena Mamelodi Sundowns Actif 123 / 143 40% 6 05.08.2027 -
Christos Zafeiris PAOK Actif 141 / 161 40% 4 05.08.2027 -
Nico Elvedi Leeds United Actif 146 / 130 40% 2 04.08.2027 -
Brayan Alcócer Tranmere Rovers Actif 100 / 105 40% 1 03.08.2027 -
Matías Palacios Al Ain Actif 120 / 134 40% 2 02.08.2027 -
Edoardo Bove Watford Actif 147 / 132 40% 1 02.08.2027 -
Emanuele Scipioni Monopoli Actif 111 / 106 40% 1 29.07.2027 -
Mathias De Amorim Famalicao Actif 143 / 144 40% 3 27.07.2027 -
Petko Hristov Spezia Actif 137 / 125 40% 2 27.07.2027 -
Djibril Sow Genoa Actif 136 / 130 40% 2 26.07.2027 -
Arsenii Batahov Trabzonspor Actif 139 / 149 40% 1 23.07.2027 -
Marlon Gomes Shakhtar Actif 146 / 133 40% 2 22.07.2027 -
Pedro Henrique Shakhtar Actif 132 / 137 40% 3 20.07.2027 -
David Hubert Mouscron Actif 137 / 137 40% 1 20.07.2027 -
Tim Jabol-Folcarelli Basaksehir Actif 129 / 153 40% 1 18.07.2027 -
Salih Özcan Besiktas Actif 155 / 150 40% 1 17.07.2027 -
Rayan Kolli Queens Park Rangers Actif 125 / 122 40% 1 17.07.2027 -
Matteo Pessina Monza Actif 128 / 132 40% 1 13.07.2027 -
Samuele Angori Pisa Actif 130 / 132 40% 1 13.07.2027 -
Moctar Diop KAA Gent Actif 123 / 116 40% 2 11.07.2027 -
Sebastiano Luperto Cremonese Actif 126 / 130 40% 1 07.07.2027 -
Mohamed Camara Maccabi Tel Aviv Actif 123 / 144 40% 1 06.07.2027 -
Adryelson Al Wasl Actif 147 / 114 40% 2 05.07.2027 -
Alexandre Duville-Parsemain Moreirense Actif 119 / 125 40% 1 04.07.2027 -
Job Ochieng Real Sociedad Actif 97 / 111 40% 1 02.07.2027 -
Cédric Don Maccabi Haifa Actif 113 / 104 40% 2 01.07.2027 -
Rodrigo Huescas FC Copenhagen Actif 130 / 148 40% 3 24.06.2027 -
Armel Bella-Kotchap Venezia Actif 127 / 145 40% 1 23.06.2027 -
Zaydou Youssouf Al-Fateh Actif 127 / 148 40% 1 22.06.2027 -
Luka Milivojević Aris Thessaloniki Actif 139 / 126 51% 1 21.06.2027 -
Mohamed Al Shamsi Al Shabab Actif 136 / 122 40% 1 21.06.2027 -
Sampson Dweh Viktoria Plzen Actif 128 / 129 40% 1 18.06.2027 -
Emmanuel Agbadou Besiktas Actif 156 / 134 40% 3 14.06.2027 -
Matija Frigan Parma Actif 124 / 118 40% 1 11.06.2027 -
Moussa Yeo Swansea City Actif 121 / 129 40% 1 11.06.2027 -
Máximo Perrone Como Actif 145 / 134 40% 1 09.06.2027 -
Radja Nainggolan KV Oostende Actif 134 / 154 40% 1 09.06.2027 -
Jaime Seoane Al-Faisaly Actif 146 / 140 40% 1 08.06.2027 -
Emam Ashour Al Ahly Actif 125 / 119 40% 2 06.06.2027 -
Kelly Saravanan Salford City Actif 113 / 118 40% 1 22.01.2027 -
Dor Turgeman Besiktas Actif 140 / 134 40% 1 22.01.2027 -
Armstrong Oko-Flex Levski Actif 131 / 132 40% 1 21.01.2027 -
Malik Mothersille Stockport County Actif 104 / 101 40% 2 20.01.2027 -
Ádin Molnár MTK Budapest Actif 107 / 117 40% 1 09.01.2027 -
Krisztofer Horváth Ujpest Actif 114 / 112 40% 1 01.01.2027 -
Dale Taylor Blackpool Actif 116 / 103 40% 1 01.01.2027 -